sensor_id;sensor_type;location;lat;lon;timestamp;P1;durP1;ratioP1;P2;durP2;ratioP2
6590;SDS011;3331;47.978;7.662;2022-12-17T00:02:15;23.80;;;15.83;;
6590;SDS011;3331;47.978;7.662;2022-12-17T00:04:59;25.03;;;15.17;;
6590;SDS011;3331;47.978;7.662;2022-12-17T00:07:43;23.13;;;13.57;;
6590;SDS011;3331;47.978;7.662;2022-12-17T00:10:27;24.73;;;15.23;;
6590;SDS011;3331;47.978;7.662;2022-12-17T00:13:19;23.13;;;13.90;;
6590;SDS011;3331;47.978;7.662;2022-12-17T00:16:03;23.93;;;14.90;;
6590;SDS011;3331;47.978;7.662;2022-12-17T00:18:47;24.37;;;15.67;;
6590;SDS011;3331;47.978;7.662;2022-12-17T00:21:31;22.37;;;14.70;;
6590;SDS011;3331;47.978;7.662;2022-12-17T00:24:15;26.67;;;15.60;;
6590;SDS011;3331;47.978;7.662;2022-12-17T00:26:59;26.60;;;16.03;;
6590;SDS011;3331;47.978;7.662;2022-12-17T00:29:44;28.33;;;18.77;;
6590;SDS011;3331;47.978;7.662;2022-12-17T00:32:28;27.07;;;16.77;;
6590;SDS011;3331;47.978;7.662;2022-12-17T00:35:12;24.83;;;15.57;;
6590;SDS011;3331;47.978;7.662;2022-12-17T00:37:56;24.97;;;16.50;;
6590;SDS011;3331;47.978;7.662;2022-12-17T00:40:40;26.07;;;16.40;;
6590;SDS011;3331;47.978;7.662;2022-12-17T00:43:24;26.93;;;17.33;;
6590;SDS011;3331;47.978;7.662;2022-12-17T00:46:09;27.90;;;16.80;;
6590;SDS011;3331;47.978;7.662;2022-12-17T00:48:53;23.40;;;15.30;;
6590;SDS011;3331;47.978;7.662;2022-12-17T00:51:37;27.33;;;15.93;;
6590;SDS011;3331;47.978;7.662;2022-12-17T00:54:21;25.03;;;15.93;;
6590;SDS011;3331;47.978;7.662;2022-12-17T00:57:05;21.53;;;14.80;;
6590;SDS011;3331;47.978;7.662;2022-12-17T00:59:49;21.53;;;14.43;;
6590;SDS011;3331;47.978;7.662;2022-12-17T01:02:31;25.23;;;15.53;;
6590;SDS011;3331;47.978;7.662;2022-12-17T01:05:14;24.40;;;14.80;;
6590;SDS011;3331;47.978;7.662;2022-12-17T01:08:05;26.93;;;17.13;;
6590;SDS011;3331;47.978;7.662;2022-12-17T01:10:49;25.20;;;16.17;;
6590;SDS011;3331;47.978;7.662;2022-12-17T01:13:33;25.77;;;14.73;;
6590;SDS011;3331;47.978;7.662;2022-12-17T01:16:17;21.73;;;13.67;;
6590;SDS011;3331;47.978;7.662;2022-12-17T01:19:02;25.07;;;16.17;;
6590;SDS011;3331;47.978;7.662;2022-12-17T01:21:46;26.70;;;16.43;;
6590;SDS011;3331;47.978;7.662;2022-12-17T01:24:30;24.90;;;15.43;;
6590;SDS011;3331;47.978;7.662;2022-12-17T01:27:14;23.13;;;14.07;;
6590;SDS011;3331;47.978;7.662;2022-12-17T01:29:58;26.20;;;16.30;;
6590;SDS011;3331;47.978;7.662;2022-12-17T01:32:42;28.17;;;16.60;;
6590;SDS011;3331;47.978;7.662;2022-12-17T01:35:27;26.07;;;16.00;;
6590;SDS011;3331;47.978;7.662;2022-12-17T01:38:11;25.33;;;16.77;;
6590;SDS011;3331;47.978;7.662;2022-12-17T01:40:56;22.73;;;15.17;;
6590;SDS011;3331;47.978;7.662;2022-12-17T01:43:39;23.20;;;15.67;;
6590;SDS011;3331;47.978;7.662;2022-12-17T01:46:35;26.33;;;16.40;;
6590;SDS011;3331;47.978;7.662;2022-12-17T01:49:20;24.40;;;15.73;;
6590;SDS011;3331;47.978;7.662;2022-12-17T01:52:06;28.23;;;16.57;;
6590;SDS011;3331;47.978;7.662;2022-12-17T01:55:00;30.67;;;16.73;;
6590;SDS011;3331;47.978;7.662;2022-12-17T01:57:43;23.53;;;15.03;;
6590;SDS011;3331;47.978;7.662;2022-12-17T02:00:27;22.53;;;14.53;;
6590;SDS011;3331;47.978;7.662;2022-12-17T02:03:12;26.03;;;16.60;;
6590;SDS011;3331;47.978;7.662;2022-12-17T02:05:58;26.30;;;16.63;;
6590;SDS011;3331;47.978;7.662;2022-12-17T02:08:49;23.97;;;15.40;;
6590;SDS011;3331;47.978;7.662;2022-12-17T02:11:40;27.00;;;16.17;;
6590;SDS011;3331;47.978;7.662;2022-12-17T02:14:28;27.73;;;17.00;;
6590;SDS011;3331;47.978;7.662;2022-12-17T02:17:16;28.83;;;17.60;;
6590;SDS011;3331;47.978;7.662;2022-12-17T02:20:04;16.93;;;10.07;;
6590;SDS011;3331;47.978;7.662;2022-12-17T02:22:52;27.63;;;17.60;;
6590;SDS011;3331;47.978;7.662;2022-12-17T02:25:41;26.67;;;16.93;;
6590;SDS011;3331;47.978;7.662;2022-12-17T02:28:27;27.83;;;16.30;;
6590;SDS011;3331;47.978;7.662;2022-12-17T02:31:12;25.27;;;14.67;;
6590;SDS011;3331;47.978;7.662;2022-12-17T02:33:57;28.30;;;18.00;;
6590;SDS011;3331;47.978;7.662;2022-12-17T02:36:41;32.43;;;19.13;;
6590;SDS011;3331;47.978;7.662;2022-12-17T02:39:25;15.43;;;9.27;;
6590;SDS011;3331;47.978;7.662;2022-12-17T02:42:09;28.00;;;15.77;;
6590;SDS011;3331;47.978;7.662;2022-12-17T02:44:54;23.07;;;14.30;;
6590;SDS011;3331;47.978;7.662;2022-12-17T02:47:38;29.00;;;18.27;;
6590;SDS011;3331;47.978;7.662;2022-12-17T02:50:22;27.93;;;17.50;;
6590;SDS011;3331;47.978;7.662;2022-12-17T02:53:06;28.77;;;17.47;;
6590;SDS011;3331;47.978;7.662;2022-12-17T02:55:50;32.87;;;18.60;;
6590;SDS011;3331;47.978;7.662;2022-12-17T02:58:34;24.50;;;16.33;;
6590;SDS011;3331;47.978;7.662;2022-12-17T03:01:19;26.77;;;16.33;;
6590;SDS011;3331;47.978;7.662;2022-12-17T03:04:03;30.40;;;17.43;;
6590;SDS011;3331;47.978;7.662;2022-12-17T03:06:47;29.63;;;16.70;;
6590;SDS011;3331;47.978;7.662;2022-12-17T03:09:31;25.83;;;15.90;;
6590;SDS011;3331;47.978;7.662;2022-12-17T03:12:15;29.53;;;17.50;;
6590;SDS011;3331;47.978;7.662;2022-12-17T03:14:59;27.50;;;17.23;;
6590;SDS011;3331;47.978;7.662;2022-12-17T03:17:44;29.23;;;17.77;;
6590;SDS011;3331;47.978;7.662;2022-12-17T03:20:28;29.93;;;19.60;;
6590;SDS011;3331;47.978;7.662;2022-12-17T03:23:12;31.03;;;19.43;;
6590;SDS011;3331;47.978;7.662;2022-12-17T03:25:56;32.57;;;17.73;;
6590;SDS011;3331;47.978;7.662;2022-12-17T03:28:40;30.90;;;17.67;;
6590;SDS011;3331;47.978;7.662;2022-12-17T03:31:24;28.27;;;17.30;;
6590;SDS011;3331;47.978;7.662;2022-12-17T03:34:10;26.40;;;16.93;;
6590;SDS011;3331;47.978;7.662;2022-12-17T03:36:54;23.03;;;14.20;;
6590;SDS011;3331;47.978;7.662;2022-12-17T03:39:38;30.07;;;17.97;;
6590;SDS011;3331;47.978;7.662;2022-12-17T03:42:18;35.37;;;20.73;;
6590;SDS011;3331;47.978;7.662;2022-12-17T03:45:07;29.67;;;17.70;;
6590;SDS011;3331;47.978;7.662;2022-12-17T03:48:01;27.60;;;16.10;;
6590;SDS011;3331;47.978;7.662;2022-12-17T03:50:47;26.43;;;14.93;;
6590;SDS011;3331;47.978;7.662;2022-12-17T03:53:30;26.53;;;16.00;;
6590;SDS011;3331;47.978;7.662;2022-12-17T03:56:14;32.63;;;17.43;;
6590;SDS011;3331;47.978;7.662;2022-12-17T03:58:59;27.40;;;16.33;;
6590;SDS011;3331;47.978;7.662;2022-12-17T04:01:48;29.17;;;16.87;;
6590;SDS011;3331;47.978;7.662;2022-12-17T04:04:31;26.47;;;16.30;;
6590;SDS011;3331;47.978;7.662;2022-12-17T04:07:16;31.07;;;18.43;;
6590;SDS011;3331;47.978;7.662;2022-12-17T04:10:00;36.43;;;19.77;;
6590;SDS011;3331;47.978;7.662;2022-12-17T04:12:44;30.80;;;16.70;;
6590;SDS011;3331;47.978;7.662;2022-12-17T04:15:28;25.53;;;15.53;;
6590;SDS011;3331;47.978;7.662;2022-12-17T04:18:11;27.27;;;16.20;;
6590;SDS011;3331;47.978;7.662;2022-12-17T04:20:55;29.13;;;17.30;;
6590;SDS011;3331;47.978;7.662;2022-12-17T04:23:41;28.13;;;16.60;;
6590;SDS011;3331;47.978;7.662;2022-12-17T04:26:24;27.57;;;17.30;;
6590;SDS011;3331;47.978;7.662;2022-12-17T04:29:08;29.23;;;16.67;;
6590;SDS011;3331;47.978;7.662;2022-12-17T04:31:52;24.50;;;14.00;;
6590;SDS011;3331;47.978;7.662;2022-12-17T04:34:36;26.57;;;16.00;;
6590;SDS011;3331;47.978;7.662;2022-12-17T04:37:20;29.30;;;17.63;;
6590;SDS011;3331;47.978;7.662;2022-12-17T04:40:07;28.40;;;16.60;;
6590;SDS011;3331;47.978;7.662;2022-12-17T04:42:50;27.67;;;15.93;;
6590;SDS011;3331;47.978;7.662;2022-12-17T04:45:34;23.77;;;13.63;;
6590;SDS011;3331;47.978;7.662;2022-12-17T04:48:18;23.20;;;13.00;;
6590;SDS011;3331;47.978;7.662;2022-12-17T04:51:02;23.87;;;13.63;;
6590;SDS011;3331;47.978;7.662;2022-12-17T04:53:58;18.23;;;11.37;;
6590;SDS011;3331;47.978;7.662;2022-12-17T04:56:43;25.03;;;13.90;;
6590;SDS011;3331;47.978;7.662;2022-12-17T04:59:36;18.93;;;11.53;;
6590;SDS011;3331;47.978;7.662;2022-12-17T05:02:19;23.03;;;15.27;;
6590;SDS011;3331;47.978;7.662;2022-12-17T05:05:04;19.80;;;10.77;;
6590;SDS011;3331;47.978;7.662;2022-12-17T05:07:51;20.13;;;13.80;;
6590;SDS011;3331;47.978;7.662;2022-12-17T05:10:35;23.63;;;14.23;;
6590;SDS011;3331;47.978;7.662;2022-12-17T05:13:20;23.27;;;13.70;;
6590;SDS011;3331;47.978;7.662;2022-12-17T05:16:04;22.53;;;14.53;;
6590;SDS011;3331;47.978;7.662;2022-12-17T05:18:48;22.87;;;14.23;;
6590;SDS011;3331;47.978;7.662;2022-12-17T05:21:32;22.87;;;14.50;;
6590;SDS011;3331;47.978;7.662;2022-12-17T05:24:16;21.93;;;13.97;;
6590;SDS011;3331;47.978;7.662;2022-12-17T05:27:00;20.00;;;13.40;;
6590;SDS011;3331;47.978;7.662;2022-12-17T05:29:45;18.77;;;12.50;;
6590;SDS011;3331;47.978;7.662;2022-12-17T05:32:29;22.17;;;13.90;;
6590;SDS011;3331;47.978;7.662;2022-12-17T05:35:13;18.63;;;11.20;;
6590;SDS011;3331;47.978;7.662;2022-12-17T05:38:01;22.10;;;12.53;;
6590;SDS011;3331;47.978;7.662;2022-12-17T05:40:45;22.73;;;14.13;;
6590;SDS011;3331;47.978;7.662;2022-12-17T05:43:29;25.20;;;15.03;;
6590;SDS011;3331;47.978;7.662;2022-12-17T05:46:14;21.03;;;13.47;;
6590;SDS011;3331;47.978;7.662;2022-12-17T05:48:58;18.17;;;10.27;;
6590;SDS011;3331;47.978;7.662;2022-12-17T05:51:44;21.97;;;12.27;;
6590;SDS011;3331;47.978;7.662;2022-12-17T05:54:28;24.73;;;13.77;;
6590;SDS011;3331;47.978;7.662;2022-12-17T05:57:12;22.73;;;13.43;;
6590;SDS011;3331;47.978;7.662;2022-12-17T05:59:56;19.43;;;10.40;;
6590;SDS011;3331;47.978;7.662;2022-12-17T06:02:41;23.73;;;13.73;;
6590;SDS011;3331;47.978;7.662;2022-12-17T06:05:25;19.83;;;12.80;;
6590;SDS011;3331;47.978;7.662;2022-12-17T06:08:09;25.37;;;14.03;;
6590;SDS011;3331;47.978;7.662;2022-12-17T06:10:53;23.87;;;13.60;;
6590;SDS011;3331;47.978;7.662;2022-12-17T06:13:36;22.33;;;14.33;;
6590;SDS011;3331;47.978;7.662;2022-12-17T06:16:17;23.27;;;13.33;;
6590;SDS011;3331;47.978;7.662;2022-12-17T06:19:02;24.47;;;13.73;;
6590;SDS011;3331;47.978;7.662;2022-12-17T06:21:46;24.67;;;14.00;;
6590;SDS011;3331;47.978;7.662;2022-12-17T06:24:30;22.47;;;14.13;;
6590;SDS011;3331;47.978;7.662;2022-12-17T06:27:14;25.67;;;14.67;;
6590;SDS011;3331;47.978;7.662;2022-12-17T06:29:58;23.17;;;14.97;;
6590;SDS011;3331;47.978;7.662;2022-12-17T06:32:41;23.30;;;12.90;;
6590;SDS011;3331;47.978;7.662;2022-12-17T06:35:26;18.93;;;11.53;;
6590;SDS011;3331;47.978;7.662;2022-12-17T06:38:10;26.30;;;14.50;;
6590;SDS011;3331;47.978;7.662;2022-12-17T06:40:54;26.47;;;14.53;;
6590;SDS011;3331;47.978;7.662;2022-12-17T06:43:38;25.83;;;15.80;;
6590;SDS011;3331;47.978;7.662;2022-12-17T06:46:21;23.93;;;13.47;;
6590;SDS011;3331;47.978;7.662;2022-12-17T06:49:05;22.73;;;12.93;;
6590;SDS011;3331;47.978;7.662;2022-12-17T06:51:47;22.43;;;13.43;;
6590;SDS011;3331;47.978;7.662;2022-12-17T06:54:31;17.70;;;10.93;;
6590;SDS011;3331;47.978;7.662;2022-12-17T06:57:15;22.97;;;13.23;;
6590;SDS011;3331;47.978;7.662;2022-12-17T06:59:59;22.60;;;12.67;;
6590;SDS011;3331;47.978;7.662;2022-12-17T07:02:42;21.13;;;13.57;;
6590;SDS011;3331;47.978;7.662;2022-12-17T07:05:27;27.93;;;14.60;;
6590;SDS011;3331;47.978;7.662;2022-12-17T07:08:12;25.43;;;14.80;;
6590;SDS011;3331;47.978;7.662;2022-12-17T07:10:57;27.10;;;15.30;;
6590;SDS011;3331;47.978;7.662;2022-12-17T07:13:41;24.90;;;14.17;;
6590;SDS011;3331;47.978;7.662;2022-12-17T07:16:25;25.70;;;14.93;;
6590;SDS011;3331;47.978;7.662;2022-12-17T07:19:09;27.53;;;14.47;;
6590;SDS011;3331;47.978;7.662;2022-12-17T07:21:53;21.03;;;12.57;;
6590;SDS011;3331;47.978;7.662;2022-12-17T07:24:39;36.00;;;21.10;;
6590;SDS011;3331;47.978;7.662;2022-12-17T07:27:23;26.37;;;15.93;;
6590;SDS011;3331;47.978;7.662;2022-12-17T07:30:07;30.80;;;19.00;;
6590;SDS011;3331;47.978;7.662;2022-12-17T07:32:56;40.60;;;24.37;;
6590;SDS011;3331;47.978;7.662;2022-12-17T07:35:40;38.17;;;22.30;;
6590;SDS011;3331;47.978;7.662;2022-12-17T07:38:24;33.23;;;18.83;;
6590;SDS011;3331;47.978;7.662;2022-12-17T07:41:09;26.10;;;15.03;;
6590;SDS011;3331;47.978;7.662;2022-12-17T07:43:53;30.83;;;17.80;;
6590;SDS011;3331;47.978;7.662;2022-12-17T07:46:37;27.60;;;16.40;;
6590;SDS011;3331;47.978;7.662;2022-12-17T07:49:21;26.97;;;16.83;;
6590;SDS011;3331;47.978;7.662;2022-12-17T07:52:05;28.50;;;16.70;;
6590;SDS011;3331;47.978;7.662;2022-12-17T07:54:49;26.83;;;16.47;;
6590;SDS011;3331;47.978;7.662;2022-12-17T07:57:34;31.50;;;18.43;;
6590;SDS011;3331;47.978;7.662;2022-12-17T08:00:18;35.43;;;19.80;;
6590;SDS011;3331;47.978;7.662;2022-12-17T08:03:02;39.57;;;22.60;;
6590;SDS011;3331;47.978;7.662;2022-12-17T08:05:46;39.43;;;22.03;;
6590;SDS011;3331;47.978;7.662;2022-12-17T08:08:30;33.37;;;19.47;;
6590;SDS011;3331;47.978;7.662;2022-12-17T08:11:14;37.27;;;21.13;;
6590;SDS011;3331;47.978;7.662;2022-12-17T08:13:59;34.40;;;19.90;;
6590;SDS011;3331;47.978;7.662;2022-12-17T08:16:43;39.93;;;22.27;;
6590;SDS011;3331;47.978;7.662;2022-12-17T08:19:27;35.50;;;19.63;;
6590;SDS011;3331;47.978;7.662;2022-12-17T08:22:11;37.50;;;21.27;;
6590;SDS011;3331;47.978;7.662;2022-12-17T08:24:55;31.40;;;18.43;;
6590;SDS011;3331;47.978;7.662;2022-12-17T08:27:39;31.47;;;17.83;;
6590;SDS011;3331;47.978;7.662;2022-12-17T08:30:25;33.60;;;18.37;;
6590;SDS011;3331;47.978;7.662;2022-12-17T08:33:08;30.97;;;15.67;;
6590;SDS011;3331;47.978;7.662;2022-12-17T08:35:52;31.10;;;16.70;;
6590;SDS011;3331;47.978;7.662;2022-12-17T08:38:37;31.93;;;17.90;;
6590;SDS011;3331;47.978;7.662;2022-12-17T08:41:21;37.43;;;19.80;;
6590;SDS011;3331;47.978;7.662;2022-12-17T08:44:04;37.50;;;21.67;;
6590;SDS011;3331;47.978;7.662;2022-12-17T08:46:50;39.00;;;21.47;;
6590;SDS011;3331;47.978;7.662;2022-12-17T08:49:34;36.73;;;19.77;;
6590;SDS011;3331;47.978;7.662;2022-12-17T08:52:17;33.03;;;19.10;;
6590;SDS011;3331;47.978;7.662;2022-12-17T08:55:02;29.70;;;17.63;;
6590;SDS011;3331;47.978;7.662;2022-12-17T08:57:51;34.47;;;19.13;;
6590;SDS011;3331;47.978;7.662;2022-12-17T09:00:35;30.50;;;16.37;;
6590;SDS011;3331;47.978;7.662;2022-12-17T09:03:20;35.13;;;19.20;;
6590;SDS011;3331;47.978;7.662;2022-12-17T09:06:04;38.10;;;21.37;;
6590;SDS011;3331;47.978;7.662;2022-12-17T09:08:48;27.67;;;16.03;;
6590;SDS011;3331;47.978;7.662;2022-12-17T09:11:32;38.70;;;21.87;;
6590;SDS011;3331;47.978;7.662;2022-12-17T09:14:16;37.60;;;22.60;;
6590;SDS011;3331;47.978;7.662;2022-12-17T09:17:00;31.50;;;19.50;;
6590;SDS011;3331;47.978;7.662;2022-12-17T09:19:45;33.60;;;18.60;;
6590;SDS011;3331;47.978;7.662;2022-12-17T09:22:29;31.53;;;18.17;;
6590;SDS011;3331;47.978;7.662;2022-12-17T09:25:13;36.87;;;20.17;;
6590;SDS011;3331;47.978;7.662;2022-12-17T09:27:58;32.80;;;18.10;;
6590;SDS011;3331;47.978;7.662;2022-12-17T09:30:42;32.67;;;19.03;;
6590;SDS011;3331;47.978;7.662;2022-12-17T09:33:26;33.17;;;19.47;;
6590;SDS011;3331;47.978;7.662;2022-12-17T09:36:12;33.07;;;17.23;;
6590;SDS011;3331;47.978;7.662;2022-12-17T09:38:56;32.27;;;19.10;;
6590;SDS011;3331;47.978;7.662;2022-12-17T09:41:42;32.27;;;17.77;;
6590;SDS011;3331;47.978;7.662;2022-12-17T09:44:28;32.70;;;18.27;;
6590;SDS011;3331;47.978;7.662;2022-12-17T09:47:23;37.23;;;20.80;;
6590;SDS011;3331;47.978;7.662;2022-12-17T09:50:11;33.90;;;19.07;;
6590;SDS011;3331;47.978;7.662;2022-12-17T09:52:56;33.93;;;19.03;;
6590;SDS011;3331;47.978;7.662;2022-12-17T09:55:43;41.17;;;22.23;;
6590;SDS011;3331;47.978;7.662;2022-12-17T09:58:28;41.37;;;21.63;;
6590;SDS011;3331;47.978;7.662;2022-12-17T10:01:14;31.23;;;17.13;;
6590;SDS011;3331;47.978;7.662;2022-12-17T10:03:58;36.03;;;19.70;;
6590;SDS011;3331;47.978;7.662;2022-12-17T10:06:42;37.00;;;19.40;;
6590;SDS011;3331;47.978;7.662;2022-12-17T10:09:27;36.40;;;19.33;;
6590;SDS011;3331;47.978;7.662;2022-12-17T10:12:11;33.60;;;19.63;;
6590;SDS011;3331;47.978;7.662;2022-12-17T10:14:56;34.40;;;20.13;;
6590;SDS011;3331;47.978;7.662;2022-12-17T10:17:40;32.43;;;19.07;;
6590;SDS011;3331;47.978;7.662;2022-12-17T10:20:25;32.67;;;19.43;;
6590;SDS011;3331;47.978;7.662;2022-12-17T10:23:20;31.07;;;17.97;;
6590;SDS011;3331;47.978;7.662;2022-12-17T10:26:05;33.37;;;20.17;;
6590;SDS011;3331;47.978;7.662;2022-12-17T10:28:49;34.67;;;18.87;;
6590;SDS011;3331;47.978;7.662;2022-12-17T10:31:33;30.37;;;17.47;;
6590;SDS011;3331;47.978;7.662;2022-12-17T10:34:18;30.83;;;18.40;;
6590;SDS011;3331;47.978;7.662;2022-12-17T10:37:03;29.27;;;16.90;;
6590;SDS011;3331;47.978;7.662;2022-12-17T10:39:59;34.57;;;19.07;;
6590;SDS011;3331;47.978;7.662;2022-12-17T10:42:46;26.10;;;16.40;;
6590;SDS011;3331;47.978;7.662;2022-12-17T10:45:30;27.80;;;16.70;;
6590;SDS011;3331;47.978;7.662;2022-12-17T10:48:19;28.00;;;16.30;;
6590;SDS011;3331;47.978;7.662;2022-12-17T10:51:03;27.40;;;17.43;;
6590;SDS011;3331;47.978;7.662;2022-12-17T10:53:46;34.27;;;19.47;;
6590;SDS011;3331;47.978;7.662;2022-12-17T10:56:31;34.90;;;19.10;;
6590;SDS011;3331;47.978;7.662;2022-12-17T10:59:22;27.53;;;17.33;;
6590;SDS011;3331;47.978;7.662;2022-12-17T11:02:09;31.07;;;18.93;;
6590;SDS011;3331;47.978;7.662;2022-12-17T11:04:58;26.27;;;15.03;;
6590;SDS011;3331;47.978;7.662;2022-12-17T11:07:41;36.10;;;19.93;;
6590;SDS011;3331;47.978;7.662;2022-12-17T11:10:26;31.50;;;17.93;;
6590;SDS011;3331;47.978;7.662;2022-12-17T11:13:11;32.13;;;19.90;;
6590;SDS011;3331;47.978;7.662;2022-12-17T11:15:59;33.27;;;18.70;;
6590;SDS011;3331;47.978;7.662;2022-12-17T11:18:45;26.70;;;14.70;;
6590;SDS011;3331;47.978;7.662;2022-12-17T11:21:34;29.23;;;16.33;;
6590;SDS011;3331;47.978;7.662;2022-12-17T11:24:20;29.30;;;18.53;;
6590;SDS011;3331;47.978;7.662;2022-12-17T11:27:06;27.77;;;16.40;;
6590;SDS011;3331;47.978;7.662;2022-12-17T11:29:50;28.00;;;17.27;;
6590;SDS011;3331;47.978;7.662;2022-12-17T11:32:45;31.30;;;18.17;;
6590;SDS011;3331;47.978;7.662;2022-12-17T11:35:35;33.97;;;18.20;;
6590;SDS011;3331;47.978;7.662;2022-12-17T11:38:26;33.10;;;18.63;;
6590;SDS011;3331;47.978;7.662;2022-12-17T11:41:13;32.10;;;18.77;;
6590;SDS011;3331;47.978;7.662;2022-12-17T11:44:00;31.03;;;19.10;;
6590;SDS011;3331;47.978;7.662;2022-12-17T11:46:47;37.57;;;22.37;;
6590;SDS011;3331;47.978;7.662;2022-12-17T11:49:36;33.33;;;18.83;;
6590;SDS011;3331;47.978;7.662;2022-12-17T11:52:23;34.00;;;18.23;;
6590;SDS011;3331;47.978;7.662;2022-12-17T11:55:06;32.37;;;17.97;;
6590;SDS011;3331;47.978;7.662;2022-12-17T11:57:53;28.83;;;17.23;;
6590;SDS011;3331;47.978;7.662;2022-12-17T12:00:38;35.53;;;21.33;;
6590;SDS011;3331;47.978;7.662;2022-12-17T12:03:28;28.97;;;16.07;;
6590;SDS011;3331;47.978;7.662;2022-12-17T12:06:16;30.37;;;17.67;;
6590;SDS011;3331;47.978;7.662;2022-12-17T12:09:03;44.27;;;19.87;;
6590;SDS011;3331;47.978;7.662;2022-12-17T12:11:51;32.93;;;19.53;;
6590;SDS011;3331;47.978;7.662;2022-12-17T12:14:38;34.70;;;19.33;;
6590;SDS011;3331;47.978;7.662;2022-12-17T12:17:30;32.83;;;19.33;;
6590;SDS011;3331;47.978;7.662;2022-12-17T12:20:20;30.43;;;16.87;;
6590;SDS011;3331;47.978;7.662;2022-12-17T12:23:10;27.27;;;16.43;;
6590;SDS011;3331;47.978;7.662;2022-12-17T12:25:58;35.00;;;17.93;;
6590;SDS011;3331;47.978;7.662;2022-12-17T12:28:51;37.70;;;21.67;;
6590;SDS011;3331;47.978;7.662;2022-12-17T12:31:38;33.97;;;18.37;;
6590;SDS011;3331;47.978;7.662;2022-12-17T12:34:27;30.00;;;17.77;;
6590;SDS011;3331;47.978;7.662;2022-12-17T12:37:13;31.00;;;19.03;;
6590;SDS011;3331;47.978;7.662;2022-12-17T12:40:00;31.23;;;18.60;;
6590;SDS011;3331;47.978;7.662;2022-12-17T12:42:46;29.57;;;16.63;;
6590;SDS011;3331;47.978;7.662;2022-12-17T12:45:37;28.77;;;16.90;;
6590;SDS011;3331;47.978;7.662;2022-12-17T12:48:26;30.87;;;17.23;;
6590;SDS011;3331;47.978;7.662;2022-12-17T12:51:12;35.67;;;19.50;;
6590;SDS011;3331;47.978;7.662;2022-12-17T12:53:59;30.37;;;17.23;;
6590;SDS011;3331;47.978;7.662;2022-12-17T12:56:59;34.17;;;18.00;;
6590;SDS011;3331;47.978;7.662;2022-12-17T12:59:46;39.30;;;21.43;;
6590;SDS011;3331;47.978;7.662;2022-12-17T13:02:31;34.83;;;19.03;;
6590;SDS011;3331;47.978;7.662;2022-12-17T13:05:26;35.37;;;20.03;;
6590;SDS011;3331;47.978;7.662;2022-12-17T13:08:15;34.93;;;20.60;;
6590;SDS011;3331;47.978;7.662;2022-12-17T13:10:43;37.50;;;20.97;;
6590;SDS011;3331;47.978;7.662;2022-12-17T13:13:12;38.27;;;20.57;;
6590;SDS011;3331;47.978;7.662;2022-12-17T13:15:42;31.33;;;18.80;;
6590;SDS011;3331;47.978;7.662;2022-12-17T13:18:15;37.10;;;19.43;;
6590;SDS011;3331;47.978;7.662;2022-12-17T13:20:43;34.73;;;19.37;;
6590;SDS011;3331;47.978;7.662;2022-12-17T13:23:13;36.63;;;19.73;;
6590;SDS011;3331;47.978;7.662;2022-12-17T13:25:40;39.03;;;20.47;;
6590;SDS011;3331;47.978;7.662;2022-12-17T13:28:22;42.53;;;22.73;;
6590;SDS011;3331;47.978;7.662;2022-12-17T13:30:58;35.43;;;19.03;;
6590;SDS011;3331;47.978;7.662;2022-12-17T13:33:29;39.30;;;21.73;;
6590;SDS011;3331;47.978;7.662;2022-12-17T13:36:01;32.20;;;19.03;;
6590;SDS011;3331;47.978;7.662;2022-12-17T13:38:30;32.53;;;18.97;;
6590;SDS011;3331;47.978;7.662;2022-12-17T13:41:01;33.63;;;19.00;;
6590;SDS011;3331;47.978;7.662;2022-12-17T13:43:31;32.50;;;18.47;;
6590;SDS011;3331;47.978;7.662;2022-12-17T13:45:58;36.23;;;20.80;;
6590;SDS011;3331;47.978;7.662;2022-12-17T13:48:26;36.20;;;16.40;;
6590;SDS011;3331;47.978;7.662;2022-12-17T13:50:53;35.90;;;19.00;;
6590;SDS011;3331;47.978;7.662;2022-12-17T13:53:20;31.47;;;19.20;;
6590;SDS011;3331;47.978;7.662;2022-12-17T13:55:48;39.77;;;22.33;;
6590;SDS011;3331;47.978;7.662;2022-12-17T13:58:22;33.90;;;18.07;;
6590;SDS011;3331;47.978;7.662;2022-12-17T14:00:50;45.90;;;23.23;;
6590;SDS011;3331;47.978;7.662;2022-12-17T14:03:19;36.70;;;20.93;;
6590;SDS011;3331;47.978;7.662;2022-12-17T14:05:46;32.27;;;18.30;;
6590;SDS011;3331;47.978;7.662;2022-12-17T14:08:14;31.23;;;18.63;;
6590;SDS011;3331;47.978;7.662;2022-12-17T14:10:42;35.43;;;21.53;;
6590;SDS011;3331;47.978;7.662;2022-12-17T14:13:12;30.03;;;18.73;;
6590;SDS011;3331;47.978;7.662;2022-12-17T14:15:38;41.83;;;22.53;;
6590;SDS011;3331;47.978;7.662;2022-12-17T14:18:11;42.13;;;23.97;;
6590;SDS011;3331;47.978;7.662;2022-12-17T14:20:39;38.50;;;22.17;;
6590;SDS011;3331;47.978;7.662;2022-12-17T14:23:06;36.57;;;21.23;;
6590;SDS011;3331;47.978;7.662;2022-12-17T14:25:34;40.03;;;24.47;;
6590;SDS011;3331;47.978;7.662;2022-12-17T14:28:01;46.37;;;26.43;;
6590;SDS011;3331;47.978;7.662;2022-12-17T14:30:32;44.97;;;26.97;;
6590;SDS011;3331;47.978;7.662;2022-12-17T14:33:00;42.67;;;24.37;;
6590;SDS011;3331;47.978;7.662;2022-12-17T14:35:29;51.30;;;25.80;;
6590;SDS011;3331;47.978;7.662;2022-12-17T14:37:56;35.80;;;20.53;;
6590;SDS011;3331;47.978;7.662;2022-12-17T14:40:23;33.80;;;19.97;;
6590;SDS011;3331;47.978;7.662;2022-12-17T14:42:50;38.57;;;20.87;;
6590;SDS011;3331;47.978;7.662;2022-12-17T14:45:21;39.83;;;22.23;;
6590;SDS011;3331;47.978;7.662;2022-12-17T14:47:51;38.57;;;22.53;;
6590;SDS011;3331;47.978;7.662;2022-12-17T14:50:26;42.47;;;23.17;;
6590;SDS011;3331;47.978;7.662;2022-12-17T14:52:54;34.80;;;19.97;;
6590;SDS011;3331;47.978;7.662;2022-12-17T14:55:25;35.70;;;21.07;;
6590;SDS011;3331;47.978;7.662;2022-12-17T14:57:53;36.70;;;20.80;;
6590;SDS011;3331;47.978;7.662;2022-12-17T15:00:19;39.27;;;22.33;;
6590;SDS011;3331;47.978;7.662;2022-12-17T15:02:48;45.40;;;24.70;;
6590;SDS011;3331;47.978;7.662;2022-12-17T15:05:15;40.83;;;22.50;;
6590;SDS011;3331;47.978;7.662;2022-12-17T15:07:41;35.07;;;20.57;;
6590;SDS011;3331;47.978;7.662;2022-12-17T15:10:10;44.37;;;23.77;;
6590;SDS011;3331;47.978;7.662;2022-12-17T15:12:37;38.87;;;23.13;;
6590;SDS011;3331;47.978;7.662;2022-12-17T15:15:04;41.50;;;22.00;;
6590;SDS011;3331;47.978;7.662;2022-12-17T15:17:30;36.87;;;21.53;;
6590;SDS011;3331;47.978;7.662;2022-12-17T15:19:57;30.60;;;17.47;;
6590;SDS011;3331;47.978;7.662;2022-12-17T15:22:23;35.10;;;19.77;;
6590;SDS011;3331;47.978;7.662;2022-12-17T15:24:49;37.07;;;22.43;;
6590;SDS011;3331;47.978;7.662;2022-12-17T15:27:17;38.27;;;21.47;;
6590;SDS011;3331;47.978;7.662;2022-12-17T15:29:44;40.27;;;21.93;;
6590;SDS011;3331;47.978;7.662;2022-12-17T15:32:11;31.53;;;19.53;;
6590;SDS011;3331;47.978;7.662;2022-12-17T15:34:41;31.33;;;16.83;;
6590;SDS011;3331;47.978;7.662;2022-12-17T15:37:08;36.83;;;22.17;;
6590;SDS011;3331;47.978;7.662;2022-12-17T15:39:35;31.17;;;17.20;;
6590;SDS011;3331;47.978;7.662;2022-12-17T15:42:02;32.57;;;17.90;;
6590;SDS011;3331;47.978;7.662;2022-12-17T15:44:47;37.20;;;20.83;;
6590;SDS011;3331;47.978;7.662;2022-12-17T15:47:14;28.43;;;15.93;;
6590;SDS011;3331;47.978;7.662;2022-12-17T15:49:40;40.07;;;24.77;;
6590;SDS011;3331;47.978;7.662;2022-12-17T15:52:07;43.70;;;23.17;;
6590;SDS011;3331;47.978;7.662;2022-12-17T15:54:34;36.40;;;19.63;;
6590;SDS011;3331;47.978;7.662;2022-12-17T15:57:00;42.17;;;21.20;;
6590;SDS011;3331;47.978;7.662;2022-12-17T15:59:26;49.60;;;26.50;;
6590;SDS011;3331;47.978;7.662;2022-12-17T16:01:54;37.77;;;21.67;;
6590;SDS011;3331;47.978;7.662;2022-12-17T16:04:20;41.27;;;21.67;;
6590;SDS011;3331;47.978;7.662;2022-12-17T16:06:46;38.10;;;21.10;;
6590;SDS011;3331;47.978;7.662;2022-12-17T16:09:13;38.53;;;20.47;;
6590;SDS011;3331;47.978;7.662;2022-12-17T16:11:39;33.83;;;20.20;;
6590;SDS011;3331;47.978;7.662;2022-12-17T16:14:05;45.17;;;22.97;;
6590;SDS011;3331;47.978;7.662;2022-12-17T16:16:32;32.43;;;16.70;;